Report METAR

 

LJLJ - Ljubljana/Brnik, Slovenia
Distance from station: O 41km
Dati ricevuti: 16/04/2021 08:30
Few Clouds
Few Clouds
 Vento da Variabile
Vento: Variabile 4 km/h
Temperatura: 4°C
P.to Rugiada: -2°C
Umidità: 65%
Barometro: 1021 hPa
Nuvole: Few Clouds
Visibility: 10 km
Cloud details: Few Clouds 2134 m
2021/04/16 06:30 LJLJ 160630Z VRB02KT 9999 FEW070 04/M02 Q1021 NOSIG
LJMB - Maribor, Slovenia
Distance from station: NE 63km
Dati ricevuti: 16/04/2021 08:30
Sereno
Sereno
 Vento da Variabile
Vento: Variabile 2 km/h
Temperatura: 3°C
P.to Rugiada: -2°C
Umidità: 70%
Barometro: 1022 hPa
Summary: Sereno
Visibility: superiore a 10 km
2021/04/16 06:30 LJMB 160630Z VRB01KT CAVOK 03/M02 Q1022
 
LJPZ - Portoroz, Slovenia
Distance from station: SO 130km
Dati ricevuti: 16/04/2021 08:30
Sereno
Sereno
 Vento da Variabile
Vento: Variabile 4 km/h
Temperatura: 7°C
P.to Rugiada: 1°C
Umidità: 66%
Barometro: 1021 hPa
Summary: Sereno
Visibility: superiore a 10 km
2021/04/16 06:30 LJPZ 160630Z VRB02KT CAVOK 07/01 Q1021
LJCE - Cerklje, Slovenia
Distance from station: ESE 49km
Dati ricevuti: 16/04/2021 08:30
Sereno
Sereno
 Vento da calmo
Vento: Calma
Temperatura: 3°C
P.to Rugiada: 0°C
Umidità: 81%
Barometro: 1022 hPa
Summary: Sereno
Visibility: superiore a 10 km
2021/04/16 06:30 LJCE 160630Z 00000KT CAVOK 03/M00 Q1022 RMK BLU
 
LDZA - Zagreb/Pleso, Croatia
Distance from station: ESE 96km
Dati ricevuti: 16/04/2021 08:30
Sereno
Sereno
 Vento da calmo
Vento: Calma
Temperatura: 3°C
P.to Rugiada: 0°C
Umidità: 81%
Barometro: 1023 hPa
Summary: Sereno
Visibility: superiore a 10 km
2021/04/16 06:30 LDZA 160630Z 00000KT CAVOK 03/00 Q1023 NOSIG
LDRI - Rijeka/Omisalj, Croatia
Distance from station: SSO 109km
Dati ricevuti: 16/04/2021 08:30
Sereno
Sereno
 Vento da NE
Vento: NE 9 km/h
Temperatura: 9°C
Temperatura Vento: 7°C
P.to Rugiada: -5°C
Umidità: 37%
Barometro: 1021 hPa
Summary: Sereno
Visibility: superiore a 10 km
2021/04/16 06:30 LDRI 160630Z 05005KT CAVOK 09/M05 Q1021
 
LDPL - Pula, Croatia
Distance from station: SSO 164km
Dati ricevuti: 16/04/2021 08:30
Sereno
Sereno
 Vento da ENE
Vento: ENE 17 km/h
Temperatura: 9°C
Temperatura Vento: 7°C
P.to Rugiada: -2°C
Umidità: 46%
Barometro: 1020 hPa
Summary: Sereno
Visibility: superiore a 10 km
2021/04/16 06:30 LDPL 160630Z 06009KT CAVOK 09/M02 Q1020 NOSIG
LOWK - Klagenfurt(Civ/M, Austria
Distance from station: NO 76km
Dati ricevuti: 16/04/2021 08:50
Few Clouds
Few Clouds
 Vento da Variabile
Vento: Variabile 2 km/h
Temperatura: 3°C
P.to Rugiada: -6°C
Umidità: 52%
Barometro: 1021 hPa
Nuvole: Few Clouds
Visibility: 10 km
Cloud details: Few Clouds 1829 m
2021/04/16 06:50 LOWK 160650Z VRB01KT 9999 FEW060 03/M06 Q1021 NOSIG
 
LOWG - Graz (mil/Civ), Austria
Distance from station: NNE 100km
Dati ricevuti: 16/04/2021 08:50
Few Clouds
Few Clouds
 Vento da Variabile
Vento: Variabile 2 km/h
Temperatura: 3°C
P.to Rugiada: -3°C
Umidità: 65%
Barometro: 1021 hPa
Nuvole: Few Clouds
Visibility: 10 km
Cloud details: Few Clouds 1829 m
2021/04/16 06:50 LOWG 160650Z VRB01KT 9999 FEW060 03/M03 Q1021 NOSIG
LOAN - Wr.neustadt East, Austria
Distance from station: NNE 212km
Dati ricevuti: 15/04/2021 20:00
DATI Obsoleti
Pioviggine, Showers, Nuvoloso
Pioviggine, Showers, Nuvoloso
 Vento da ONO
Vento: ONO 22 km/h
Summary: Pioviggine, Showers
Nuvole: Molto nuvoloso
Cloud details: Parz. nuvoloso 762 m
Molto nuvoloso 1067 m
2021/04/15 18:00 LOAN 151800Z 29012KT 10KM -SHRA SCT025CU BKN035SC
 
LIPQ - Ronchi Legionari, Italy
Distance from station: SO 35km
Dati ricevuti: 16/04/2021 08:50
Sereno
Sereno
 Vento da Variabile
Vento: Variabile 2 km/h
Temperatura: 8°C
P.to Rugiada: -1°C
Umidità: 53%
Barometro: 1021 hPa
Nuvole: Sereno
Visibility: 10 km
2021/04/16 06:50 LIPQ 160650Z AUTO VRB01KT 9999 NCD 08/M01 Q1021
LIVT - Trieste, Italy
Distance from station: OSO 109km
Dati ricevuti: 16/04/2021 07:55
Sereno
Sereno
 Vento da NE
Vento: NE 6 km/h
Temperatura: 7°C
P.to Rugiada: -4°C
Umidità: 46%
Barometro: 1020 hPa
Summary: Sereno
Visibility: superiore a 10 km
2021/04/16 05:55 LIVT 160555Z 05003KT CAVOK 07/M04 Q1020 RMK SKC QUK 1 QUL 1 NE VIS MAR 20 KM VIS MIN 9999
 
LIVO - Tarvisio, Italy
Distance from station: NNO 49km
Dati ricevuti: 16/04/2021 07:55
Sereno
Sereno
 Vento da calmo
Vento: Calma
Temperatura: -2°C
P.to Rugiada: -4°C
Umidità: 86%
Barometro: 1019 hPa
Summary: Sereno
Visibility: superiore a 10 km
2021/04/16 05:55 LIVO 160555Z 00000KT CAVOK M02/M04 Q1019 RMK FEW FEW060 VIS MIN 9999
LIPZ - Venezia/Tessera, Italy
Distance from station: OSO 217km
Dati ricevuti: 16/04/2021 08:50
Sereno
Sereno
 Vento da NE
Vento: NE 11 km/h
Temperatura: 8°C
Temperatura Vento: 6°C
P.to Rugiada: 3°C
Umidità: 71%
Barometro: 1021 hPa
Summary: Sereno
Visibility: superiore a 10 km
2021/04/16 06:50 LIPZ 160650Z 05006KT CAVOK 08/03 Q1021 NOSIG
 
LHSM - Balaton, Hungary
Distance from station: ENE 177km
Dati ricevuti: 16/04/2021 08:15
Sereno
Sereno
 Vento da NO
Vento: NO 9 km/h
Temperatura: 4°C
Temperatura Vento: 2°C
P.to Rugiada: 0°C
Umidità: 75%
Barometro: 1022 hPa
Nuvole: Sereno
Visibility: 9 km
2021/04/16 06:15 LHSM 160615Z AUTO 31005KT 280V340 9000 NCD 04/M00 Q1022 NOSIG